createdAt,value
2022-08-24T00:01:58.630Z,38.63
2022-08-24T00:04:26.908Z,38.86
2022-08-24T00:06:56.613Z,39.04
2022-08-24T00:09:24.679Z,39.03
2022-08-24T00:11:54.115Z,39.15
2022-08-24T00:14:22.172Z,38.90
2022-08-24T00:16:50.425Z,39.20
2022-08-24T00:19:18.990Z,39.27
2022-08-24T00:21:47.247Z,39.43
2022-08-24T00:24:15.717Z,39.30
2022-08-24T00:26:43.854Z,39.52
2022-08-24T00:29:15.461Z,39.62
2022-08-24T00:31:43.559Z,39.81
2022-08-24T00:34:13.859Z,39.83
2022-08-24T00:36:43.091Z,40.07
2022-08-24T00:39:12.191Z,40.01
2022-08-24T00:41:42.966Z,40.21
2022-08-24T00:44:11.772Z,40.26
2022-08-24T00:46:47.021Z,40.26
2022-08-24T00:49:23.746Z,40.15
2022-08-24T00:51:57.794Z,40.36
2022-08-24T00:54:30.478Z,40.72
2022-08-24T00:57:03.598Z,41.07
2022-08-24T00:59:37.753Z,41.10
2022-08-24T01:02:15.649Z,41.34
2022-08-24T01:04:49.166Z,41.39
2022-08-24T01:07:17.806Z,41.65
2022-08-24T01:09:46.393Z,42.03
2022-08-24T01:12:14.617Z,42.33
2022-08-24T01:14:42.690Z,42.19
2022-08-24T01:17:33.916Z,42.54
2022-08-24T01:20:07.273Z,42.72
2022-08-24T01:22:47.679Z,42.72
2022-08-24T01:25:17.602Z,43.17
2022-08-24T01:27:46.373Z,43.50
2022-08-24T01:30:17.395Z,43.60
2022-08-24T01:32:54.618Z,43.62
2022-08-24T01:35:23.202Z,43.71
2022-08-24T01:37:52.804Z,43.89
2022-08-24T01:40:23.233Z,44.19
2022-08-24T01:42:53.975Z,44.09
2022-08-24T01:45:23.013Z,44.17
2022-08-24T01:47:51.399Z,44.10
2022-08-24T01:50:19.433Z,44.40
2022-08-24T01:53:04.757Z,44.19
2022-08-24T01:55:35.836Z,44.17
2022-08-24T01:58:04.722Z,44.25
2022-08-24T02:00:33.398Z,44.39
2022-08-24T02:03:02.202Z,44.13
2022-08-24T02:05:31.495Z,44.34
2022-08-24T02:08:00.336Z,44.37
2022-08-24T02:10:29.409Z,44.58
2022-08-24T02:13:00.116Z,44.51
2022-08-24T02:15:31.865Z,44.64
2022-08-24T02:18:01.121Z,44.64
2022-08-24T02:20:30.244Z,45.09
2022-08-24T02:22:58.780Z,45.01
2022-08-24T02:25:30.506Z,44.96
2022-08-24T02:28:01.771Z,45.37
2022-08-24T02:30:30.978Z,45.54
2022-08-24T02:32:59.725Z,45.32
2022-08-24T02:35:29.310Z,45.48
2022-08-24T02:37:58.060Z,45.66
2022-08-24T02:40:28.165Z,45.80
2022-08-24T02:42:57.427Z,45.90
2022-08-24T02:45:27.428Z,45.86
2022-08-24T02:47:55.858Z,46.01
2022-08-24T02:50:25.234Z,46.22
2022-08-24T02:52:54.292Z,46.38
2022-08-24T02:55:23.045Z,46.54
2022-08-24T02:57:53.261Z,46.72
2022-08-24T03:00:23.834Z,46.63
2022-08-24T03:02:53.470Z,46.86
2022-08-24T03:05:23.433Z,46.93
2022-08-24T03:07:52.393Z,47.07
2022-08-24T03:10:21.583Z,47.18
2022-08-24T03:12:49.736Z,47.53
2022-08-24T03:15:22.557Z,47.70
2022-08-24T03:17:50.845Z,47.84
2022-08-24T03:20:22.968Z,47.70
2022-08-24T03:22:51.813Z,47.89
2022-08-24T03:25:21.636Z,47.99
2022-08-24T03:27:50.302Z,48.00
2022-08-24T03:30:19.168Z,47.87
2022-08-24T03:32:49.537Z,48.18
2022-08-24T03:35:21.866Z,48.30
2022-08-24T03:37:50.889Z,48.47
2022-08-24T03:40:22.328Z,48.47
2022-08-24T03:42:53.722Z,48.73
2022-08-24T03:45:22.869Z,48.61
2022-08-24T03:47:51.173Z,48.65
2022-08-24T03:50:21.413Z,48.71
2022-08-24T03:52:50.408Z,48.82
2022-08-24T03:55:19.527Z,48.89
2022-08-24T03:57:48.501Z,49.24
2022-08-24T04:00:18.083Z,49.08
2022-08-24T04:02:55.165Z,49.38
2022-08-24T04:05:27.071Z,49.26
2022-08-24T04:07:55.173Z,49.20
2022-08-24T04:10:23.233Z,49.22
2022-08-24T04:12:51.290Z,49.11
2022-08-24T04:15:24.478Z,49.26
2022-08-24T04:17:52.734Z,49.26
2022-08-24T04:20:21.294Z,49.31
2022-08-24T04:22:53.712Z,49.46
2022-08-24T04:25:25.130Z,49.47
2022-08-24T04:27:53.534Z,49.69
2022-08-24T04:30:24.708Z,49.61
2022-08-24T04:33:15.110Z,49.66
2022-08-24T04:38:34.668Z,50.21
2022-08-24T04:41:41.893Z,50.45
2022-08-24T04:44:12.008Z,50.31
2022-08-24T04:46:40.930Z,50.36
2022-08-24T04:49:10.382Z,50.37
2022-08-24T04:51:39.804Z,50.27
2022-08-24T04:54:10.775Z,50.52
2022-08-24T04:56:40.054Z,50.40
2022-08-24T04:59:08.500Z,50.53
2022-08-24T05:01:37.237Z,50.72
2022-08-24T05:04:07.519Z,50.82
2022-08-24T05:06:36.403Z,50.77
2022-08-24T05:09:06.884Z,50.88
2022-08-24T05:11:40.403Z,50.91
2022-08-24T05:14:11.257Z,51.05
2022-08-24T05:16:52.424Z,51.10
2022-08-24T05:19:21.866Z,51.24
2022-08-24T05:21:50.284Z,51.27
2022-08-24T05:24:19.671Z,51.56
2022-08-24T05:26:50.079Z,51.62
2022-08-24T05:29:19.153Z,51.49
2022-08-24T05:31:52.149Z,51.28
2022-08-24T05:34:20.500Z,51.12
2022-08-24T05:36:50.330Z,50.79
2022-08-24T05:39:38.088Z,50.83
2022-08-24T05:42:11.243Z,50.53
2022-08-24T05:44:46.278Z,49.67
2022-08-24T05:47:18.262Z,49.52
2022-08-24T05:49:48.109Z,49.08
2022-08-24T05:52:17.518Z,48.47
2022-08-24T05:54:53.610Z,47.69
2022-08-24T05:57:24.656Z,47.91
2022-08-24T06:00:09.005Z,47.57
2022-08-24T06:02:44.619Z,47.31
2022-08-24T06:05:14.201Z,47.32
2022-08-24T06:07:43.661Z,46.89
2022-08-24T06:10:35.322Z,46.25
2022-08-24T06:13:05.444Z,45.90
2022-08-24T06:15:34.542Z,45.22
2022-08-24T06:18:03.307Z,44.95
2022-08-24T06:20:31.824Z,45.12
2022-08-24T06:23:00.472Z,44.78
2022-08-24T06:25:57.401Z,45.58
2022-08-24T06:28:27.648Z,44.90
2022-08-24T06:31:03.708Z,44.71
2022-08-24T06:33:32.196Z,43.80
2022-08-24T06:36:00.794Z,44.09
2022-08-24T06:38:30.774Z,44.46
2022-08-24T06:41:00.219Z,43.90
2022-08-24T06:43:30.165Z,44.06
2022-08-24T06:46:02.995Z,43.56
2022-08-24T06:48:36.262Z,42.74
2022-08-24T06:51:10.585Z,42.75
2022-08-24T06:53:40.771Z,43.17
2022-08-24T06:56:10.197Z,42.23
2022-08-24T06:58:40.422Z,42.68
2022-08-24T07:01:16.105Z,42.26
2022-08-24T07:03:45.281Z,42.25
2022-08-24T07:06:28.009Z,42.51
2022-08-24T07:09:00.485Z,43.00
2022-08-24T07:11:29.195Z,42.25
2022-08-24T07:13:59.114Z,41.65
2022-08-24T07:16:27.930Z,41.71
2022-08-24T07:19:02.454Z,42.32
2022-08-24T07:21:32.478Z,43.13
2022-08-24T07:24:02.437Z,41.17
2022-08-24T07:26:34.845Z,40.71
2022-08-24T07:29:13.601Z,40.54
2022-08-24T07:31:50.252Z,38.41
2022-08-24T07:34:29.706Z,37.95
2022-08-24T07:37:00.027Z,37.90
2022-08-24T07:39:28.589Z,37.05
2022-08-24T07:42:17.213Z,36.05
2022-08-24T07:44:48.566Z,36.00
2022-08-24T07:50:10.696Z,36.80
2022-08-24T07:52:39.146Z,36.05
2022-08-24T07:55:09.183Z,36.19
2022-08-24T07:57:38.566Z,36.32
2022-08-24T08:00:12.721Z,34.94
2022-08-24T08:02:47.307Z,35.46
2022-08-24T08:05:20.558Z,35.24
2022-08-24T08:07:52.391Z,35.01
2022-08-24T08:10:23.454Z,33.21
2022-08-24T08:12:53.556Z,33.77
2022-08-24T08:15:23.542Z,34.33
2022-08-24T08:17:58.806Z,32.91
2022-08-24T08:20:27.299Z,32.02
2022-08-24T08:23:13.986Z,32.11
2022-08-24T08:26:03.339Z,33.31
2022-08-24T08:28:48.729Z,33.47
2022-08-24T08:31:19.011Z,33.44
2022-08-24T08:33:48.498Z,33.91
2022-08-24T08:36:17.306Z,33.80
2022-08-24T08:38:50.858Z,32.76
2022-08-24T08:41:56.418Z,32.73
2022-08-24T08:44:38.681Z,33.06
2022-08-24T08:47:34.102Z,32.88
2022-08-24T08:50:17.259Z,34.45
2022-08-24T08:53:18.758Z,32.31
2022-08-24T08:55:59.229Z,33.25
2022-08-24T08:58:57.100Z,32.93
2022-08-24T09:01:46.635Z,32.65
2022-08-24T09:04:49.286Z,31.89
2022-08-24T09:07:28.348Z,31.57
2022-08-24T09:10:51.984Z,30.78
2022-08-24T09:13:35.671Z,28.66
2022-08-24T09:16:19.700Z,29.61
2022-08-24T09:19:14.945Z,30.03
2022-08-24T09:21:59.415Z,29.06
2022-08-24T09:24:51.033Z,29.29
2022-08-24T09:27:51.695Z,28.49
2022-08-24T09:30:24.703Z,27.05
2022-08-24T09:33:01.194Z,27.91
2022-08-24T09:35:36.709Z,27.62
2022-08-24T09:38:19.001Z,26.27
2022-08-24T09:41:11.227Z,26.57
2022-08-24T09:44:12.850Z,26.26
2022-08-24T09:47:12.002Z,25.94
2022-08-24T09:49:58.761Z,23.34
2022-08-24T09:53:09.155Z,26.00
2022-08-24T09:56:00.121Z,24.60
2022-08-24T09:58:44.969Z,23.69
2022-08-24T10:01:21.530Z,23.02
2022-08-24T10:04:05.988Z,23.37
2022-08-24T10:06:43.823Z,23.47
2022-08-24T10:09:42.811Z,23.34
2022-08-24T10:12:22.773Z,21.71
2022-08-24T10:14:58.932Z,21.90
2022-08-24T10:17:37.077Z,21.89
2022-08-24T10:20:17.775Z,21.95
2022-08-24T10:23:11.580Z,21.29
2022-08-24T10:25:47.866Z,21.10
2022-08-24T10:28:45.789Z,21.35
2022-08-24T10:31:19.719Z,19.73
2022-08-24T10:34:00.392Z,20.08
2022-08-24T10:36:46.027Z,19.56
2022-08-24T10:39:42.880Z,19.63
2022-08-24T10:43:06.990Z,19.75
2022-08-24T10:46:29.259Z,19.45
2022-08-24T10:49:43.646Z,17.70
2022-08-24T10:52:49.085Z,19.96
2022-08-24T10:55:22.473Z,18.89
2022-08-24T10:58:19.991Z,18.55
2022-08-24T11:00:49.338Z,20.12
2022-08-24T11:03:27.932Z,18.54
2022-08-24T11:05:58.673Z,18.42
2022-08-24T11:08:29.285Z,17.94
2022-08-24T11:11:07.940Z,17.81
2022-08-24T11:13:38.034Z,17.74
2022-08-24T11:16:07.641Z,17.32
2022-08-24T11:18:51.180Z,17.32
2022-08-24T11:21:37.446Z,15.22
2022-08-24T11:24:08.554Z,17.99
2022-08-24T11:26:53.537Z,16.77
2022-08-24T11:29:23.255Z,16.80
2022-08-24T11:31:53.733Z,16.43
2022-08-24T11:34:34.682Z,17.06
2022-08-24T11:37:03.553Z,16.94
2022-08-24T11:39:35.772Z,15.90
2022-08-24T11:42:15.701Z,17.17
2022-08-24T11:44:49.922Z,17.46
2022-08-24T11:47:39.393Z,18.48
2022-08-24T11:50:20.929Z,17.22
2022-08-24T11:52:58.571Z,18.49
2022-08-24T11:55:46.867Z,18.64
2022-08-24T11:58:33.670Z,17.28
2022-08-24T12:01:09.567Z,17.12
2022-08-24T12:03:58.350Z,16.72
2022-08-24T12:06:41.546Z,17.18
2022-08-24T12:09:28.394Z,16.16
2022-08-24T12:12:03.807Z,16.33
2022-08-24T12:14:38.787Z,16.99
2022-08-24T12:17:16.886Z,17.40
2022-08-24T12:19:50.331Z,16.69
2022-08-24T12:22:22.071Z,16.25
2022-08-24T12:24:52.593Z,15.59
2022-08-24T12:27:25.606Z,16.48
2022-08-24T12:30:01.418Z,15.57
2022-08-24T12:32:39.565Z,15.94
2022-08-24T12:35:12.577Z,16.29
2022-08-24T12:37:45.228Z,15.57
2022-08-24T12:40:24.422Z,15.46
2022-08-24T12:42:56.625Z,15.98
2022-08-24T12:45:26.035Z,15.66
2022-08-24T12:48:03.765Z,15.48
2022-08-24T12:50:41.109Z,16.13
2022-08-24T12:53:39.263Z,16.03
2022-08-24T12:56:30.170Z,15.18
2022-08-24T12:59:16.031Z,15.57
2022-08-24T13:01:48.479Z,15.63
2022-08-24T13:04:31.373Z,15.42
2022-08-24T13:07:03.614Z,16.54
2022-08-24T13:09:36.942Z,17.33
2022-08-24T13:12:42.849Z,17.60
2022-08-24T13:15:48.371Z,18.09
2022-08-24T13:18:50.719Z,17.53
2022-08-24T13:21:42.367Z,18.54
2022-08-24T13:24:52.830Z,19.57
2022-08-24T13:28:01.434Z,19.21
2022-08-24T13:30:36.619Z,19.48
2022-08-24T13:33:09.637Z,19.22
2022-08-24T13:35:58.299Z,19.74
2022-08-24T13:38:55.945Z,18.98
2022-08-24T13:41:55.297Z,19.32
2022-08-24T13:44:36.366Z,19.42
2022-08-24T13:47:16.885Z,19.05
2022-08-24T13:50:02.249Z,18.01
2022-08-24T13:52:44.852Z,19.81
2022-08-24T13:55:45.668Z,19.57
2022-08-24T13:58:27.017Z,19.64
2022-08-24T14:01:01.933Z,21.50
2022-08-24T14:03:53.435Z,21.05
2022-08-24T14:06:39.259Z,20.92
2022-08-24T14:09:26.859Z,21.76
2022-08-24T14:12:23.356Z,22.01
2022-08-24T14:15:08.467Z,20.49
2022-08-24T14:17:55.357Z,21.82
2022-08-24T14:20:51.629Z,20.73
2022-08-24T14:23:36.531Z,20.89
2022-08-24T14:26:42.469Z,21.41
2022-08-24T14:29:40.673Z,20.60
2022-08-24T14:32:36.179Z,20.20
2022-08-24T14:35:26.149Z,20.56
2022-08-24T14:38:16.862Z,20.85
2022-08-24T14:41:03.093Z,20.31
2022-08-24T14:43:46.046Z,21.03
2022-08-24T14:46:24.167Z,21.25
2022-08-24T14:49:09.220Z,21.39
2022-08-24T14:51:56.710Z,22.02
2022-08-24T14:54:35.894Z,21.83
2022-08-24T14:57:28.814Z,20.80
2022-08-24T15:00:06.907Z,22.12
2022-08-24T15:03:17.006Z,23.17
2022-08-24T15:06:09.535Z,21.73
2022-08-24T15:08:43.957Z,22.94
2022-08-24T15:11:14.749Z,24.58
2022-08-24T15:13:48.508Z,21.85
2022-08-24T15:16:22.463Z,22.50
2022-08-24T15:18:58.744Z,23.71
2022-08-24T15:21:37.359Z,23.47
2022-08-24T15:24:16.723Z,22.75
2022-08-24T15:27:02.251Z,22.59
2022-08-24T15:29:33.450Z,22.76
2022-08-24T15:32:07.273Z,22.84
2022-08-24T15:34:40.232Z,22.95
2022-08-24T15:37:08.739Z,23.63
2022-08-24T15:39:38.613Z,24.10
2022-08-24T15:42:11.703Z,22.24
2022-08-24T15:44:43.119Z,23.42
2022-08-24T15:47:22.590Z,25.07
2022-08-24T15:49:55.186Z,25.07
2022-08-24T15:52:50.181Z,23.67
2022-08-24T15:55:36.602Z,24.11
2022-08-24T15:58:36.502Z,23.80
2022-08-24T16:01:38.657Z,23.08
2022-08-24T16:04:09.617Z,23.30
2022-08-24T16:06:41.795Z,23.93
2022-08-24T16:09:15.052Z,24.23
2022-08-24T16:11:50.306Z,24.85
2022-08-24T16:14:28.546Z,24.30
2022-08-24T16:16:59.403Z,24.00
2022-08-24T16:19:30.514Z,23.60
2022-08-24T16:22:01.712Z,25.36
2022-08-24T16:24:33.519Z,26.40
2022-08-24T16:27:07.379Z,26.90
2022-08-24T16:29:47.990Z,26.01
2022-08-24T16:32:21.598Z,26.55
2022-08-24T16:34:57.752Z,27.21
2022-08-24T16:37:26.302Z,27.11
2022-08-24T16:39:54.652Z,26.91
2022-08-24T16:42:27.305Z,27.01
2022-08-24T16:44:56.533Z,26.67
2022-08-24T16:47:25.385Z,27.69
2022-08-24T16:49:53.437Z,27.36
2022-08-24T16:52:21.979Z,28.23
2022-08-24T16:54:50.566Z,28.45
2022-08-24T16:57:22.850Z,28.97
2022-08-24T16:59:53.517Z,29.77
2022-08-24T17:02:22.953Z,29.34
2022-08-24T17:04:51.355Z,29.07
2022-08-24T17:07:24.529Z,29.57
2022-08-24T17:09:53.262Z,29.75
2022-08-24T17:12:21.730Z,30.11
2022-08-24T17:14:49.878Z,31.19
2022-08-24T17:17:21.650Z,31.73
2022-08-24T17:19:51.054Z,31.34
2022-08-24T17:22:19.102Z,31.75
2022-08-24T17:24:47.445Z,32.28
2022-08-24T17:27:16.499Z,32.12
2022-08-24T17:29:45.869Z,32.11
2022-08-24T17:32:14.930Z,32.93
2022-08-24T17:34:44.463Z,32.58
2022-08-24T17:37:13.046Z,32.16
2022-08-24T17:39:41.189Z,33.88
2022-08-24T17:42:27.900Z,33.79
2022-08-24T17:44:57.653Z,34.71
2022-08-24T17:47:25.927Z,35.22
2022-08-24T17:49:55.418Z,35.56
2022-08-24T17:52:23.578Z,35.56
2022-08-24T17:54:51.565Z,35.79
2022-08-24T17:57:28.803Z,36.21
2022-08-24T17:59:56.839Z,35.76
2022-08-24T18:02:24.918Z,36.36
2022-08-24T18:04:53.008Z,36.63
2022-08-24T18:07:36.182Z,36.34
2022-08-24T18:10:12.157Z,36.56
2022-08-24T18:12:40.759Z,36.63
2022-08-24T18:15:09.671Z,37.01
2022-08-24T18:17:40.718Z,37.09
2022-08-24T18:20:11.130Z,37.60
2022-08-24T18:22:44.556Z,37.88
2022-08-24T18:25:13.641Z,38.04
2022-08-24T18:27:43.232Z,37.98
2022-08-24T18:30:17.194Z,38.36
2022-08-24T18:32:46.372Z,38.82
2022-08-24T18:35:14.619Z,38.84
2022-08-24T18:37:44.231Z,39.28
2022-08-24T18:40:21.102Z,39.40
2022-08-24T18:42:50.909Z,39.63
2022-08-24T18:45:19.610Z,39.70
2022-08-24T18:47:53.531Z,39.88
2022-08-24T18:50:22.178Z,40.45
2022-08-24T18:52:51.729Z,40.33
2022-08-24T18:55:19.957Z,40.64
2022-08-24T18:57:48.323Z,40.60
2022-08-24T19:00:17.028Z,40.61
2022-08-24T19:02:45.507Z,41.10
2022-08-24T19:05:17.636Z,40.90
2022-08-24T19:07:47.274Z,41.06
2022-08-24T19:10:19.458Z,41.38
2022-08-24T19:12:51.630Z,41.33
2022-08-24T19:15:32.634Z,41.36
2022-08-24T19:18:07.645Z,41.10
2022-08-24T19:20:36.284Z,41.18
2022-08-24T19:23:09.325Z,41.19
2022-08-24T19:25:40.594Z,41.26
2022-08-24T19:28:08.673Z,41.20
2022-08-24T19:30:37.442Z,41.23
2022-08-24T19:33:11.781Z,41.16
2022-08-24T19:35:42.254Z,41.35
2022-08-24T19:38:10.272Z,41.33
2022-08-24T19:40:39.949Z,41.33
2022-08-24T19:43:16.123Z,41.46
2022-08-24T19:46:01.517Z,41.59
2022-08-24T19:48:30.214Z,41.90
2022-08-24T19:50:59.929Z,42.16
2022-08-24T19:53:31.375Z,42.20
2022-08-24T19:56:00.936Z,42.38
2022-08-24T19:58:32.114Z,42.03
2022-08-24T20:01:05.168Z,42.13
2022-08-24T20:03:33.304Z,42.01
2022-08-24T20:06:01.310Z,42.14
2022-08-24T20:08:29.386Z,42.53
2022-08-24T20:11:00.450Z,42.38
2022-08-24T20:13:29.985Z,42.61
2022-08-24T20:15:58.850Z,42.55
2022-08-24T20:18:31.201Z,42.35
2022-08-24T20:20:59.771Z,42.45
2022-08-24T20:23:28.085Z,42.36
2022-08-24T20:25:56.613Z,42.67
2022-08-24T20:28:30.132Z,42.68
2022-08-24T20:31:01.467Z,42.71
2022-08-24T20:33:29.543Z,42.93
2022-08-24T20:35:57.932Z,42.99
2022-08-24T20:38:26.854Z,43.16
2022-08-24T20:41:00.765Z,43.43
2022-08-24T20:43:28.954Z,43.54
2022-08-24T20:45:57.610Z,43.79
2022-08-24T20:48:30.517Z,43.87
2022-08-24T20:50:58.833Z,44.17
2022-08-24T20:53:27.418Z,44.14
2022-08-24T20:55:57.628Z,44.32
2022-08-24T20:58:26.571Z,44.39
2022-08-24T21:00:54.768Z,44.44
2022-08-24T21:03:23.016Z,44.36
2022-08-24T21:05:52.624Z,44.28
2022-08-24T21:08:20.994Z,44.40
2022-08-24T21:10:49.249Z,44.16
2022-08-24T21:13:17.334Z,44.22
2022-08-24T21:15:46.080Z,44.23
2022-08-24T21:18:14.254Z,43.90
2022-08-24T21:20:46.092Z,43.40
2022-08-24T21:23:32.649Z,43.06
2022-08-24T21:26:02.009Z,42.90
2022-08-24T21:28:30.523Z,42.30
2022-08-24T21:31:02.475Z,42.11
2022-08-24T21:33:50.893Z,41.74
2022-08-24T21:36:20.575Z,41.10
2022-08-24T21:38:51.995Z,41.12
2022-08-24T21:41:21.696Z,40.63
2022-08-24T21:43:49.803Z,40.28
2022-08-24T21:46:18.329Z,40.19
2022-08-24T21:48:46.842Z,39.92
2022-08-24T21:51:14.880Z,39.90
2022-08-24T21:53:43.029Z,39.65
2022-08-24T21:56:12.481Z,39.30
2022-08-24T21:58:40.551Z,39.36
2022-08-24T22:01:08.570Z,39.23
2022-08-24T22:03:40.140Z,39.30
2022-08-24T22:06:09.613Z,39.09
2022-08-24T22:08:37.867Z,38.85
2022-08-24T22:11:06.617Z,38.77
2022-08-24T22:13:36.714Z,38.76
2022-08-24T22:16:05.700Z,38.98
2022-08-24T22:18:34.234Z,38.85
2022-08-24T22:21:06.709Z,38.62
2022-08-24T22:23:34.949Z,38.66
2022-08-24T22:26:03.469Z,38.81
2022-08-24T22:28:31.481Z,38.69
2022-08-24T22:31:01.097Z,38.88
2022-08-24T22:33:29.851Z,39.12
2022-08-24T22:35:57.869Z,39.03
2022-08-24T22:38:25.902Z,38.92
2022-08-24T22:40:57.022Z,38.87
2022-08-24T22:43:45.023Z,39.16
2022-08-24T22:46:14.649Z,39.02
2022-08-24T22:48:42.919Z,38.95
2022-08-24T22:51:11.585Z,39.10
2022-08-24T22:53:40.747Z,39.13
2022-08-24T22:56:16.104Z,39.11
2022-08-24T22:58:44.179Z,39.19
2022-08-24T23:01:21.148Z,38.91
2022-08-24T23:03:50.311Z,38.95
2022-08-24T23:06:18.745Z,38.92
2022-08-24T23:08:46.904Z,39.11
2022-08-24T23:11:15.674Z,39.21
2022-08-24T23:13:44.153Z,39.35
2022-08-24T23:16:14.224Z,39.63
2022-08-24T23:19:01.231Z,39.52
2022-08-24T23:21:29.538Z,39.74
2022-08-24T23:23:57.665Z,39.48
2022-08-24T23:26:26.017Z,39.53
2022-08-24T23:28:55.234Z,39.46
2022-08-24T23:31:24.623Z,39.62
2022-08-24T23:33:54.263Z,39.44
2022-08-24T23:36:25.072Z,39.48
2022-08-24T23:38:55.240Z,39.51
2022-08-24T23:41:25.957Z,39.56
2022-08-24T23:43:54.776Z,39.53
2022-08-24T23:46:24.029Z,39.52
2022-08-24T23:48:55.212Z,40.07
2022-08-24T23:51:24.942Z,40.46
2022-08-24T23:53:53.173Z,40.62
2022-08-24T23:56:25.293Z,40.64
2022-08-24T23:58:54.142Z,40.52
